createdAt,value
2022-12-18T00:00:21.425Z,15.75
2022-12-18T00:01:37.303Z,14.93
2022-12-18T00:02:40.297Z,15.55
2022-12-18T00:03:43.712Z,14.77
2022-12-18T00:04:46.851Z,15.90
2022-12-18T00:05:53.260Z,16.38
2022-12-18T00:06:56.032Z,15.75
2022-12-18T00:07:58.752Z,14.25
2022-12-18T00:09:03.831Z,14.77
2022-12-18T00:10:07.146Z,16.23
2022-12-18T00:11:13.120Z,14.73
2022-12-18T00:13:18.541Z,14.48
2022-12-18T00:14:21.412Z,15.77
2022-12-18T00:15:24.614Z,16.58
2022-12-18T00:16:29.579Z,12.63
2022-12-18T00:17:33.879Z,12.23
2022-12-18T00:18:37.180Z,13.02
2022-12-18T00:19:40.215Z,13.18
2022-12-18T00:20:43.662Z,14.90
2022-12-18T00:21:46.384Z,15.10
2022-12-18T00:22:49.418Z,15.63
2022-12-18T00:23:52.664Z,14.35
2022-12-18T00:24:55.407Z,14.95
2022-12-18T00:26:04.071Z,13.40
2022-12-18T00:27:07.335Z,14.82
2022-12-18T00:28:10.136Z,16.30
2022-12-18T00:29:17.598Z,15.13
2022-12-18T00:30:20.319Z,16.05
2022-12-18T00:31:24.847Z,15.95
2022-12-18T00:32:29.453Z,15.00
2022-12-18T00:33:32.879Z,14.60
2022-12-18T00:34:35.593Z,14.68
2022-12-18T00:35:38.348Z,15.93
2022-12-18T00:36:42.074Z,15.07
2022-12-18T00:37:44.712Z,14.80
2022-12-18T00:38:48.495Z,15.73
2022-12-18T00:39:54.111Z,15.57
2022-12-18T00:40:56.791Z,14.68
2022-12-18T00:42:18.067Z,15.32
2022-12-18T00:43:22.275Z,14.43
2022-12-18T00:44:24.975Z,14.32
2022-12-18T00:45:31.106Z,16.00
2022-12-18T00:46:34.171Z,14.48
2022-12-18T00:47:39.381Z,15.77
2022-12-18T00:48:42.096Z,17.75
2022-12-18T00:49:44.808Z,17.15
2022-12-18T00:50:49.680Z,16.05
2022-12-18T00:51:52.682Z,16.65
2022-12-18T00:52:55.644Z,14.95
2022-12-18T00:53:58.568Z,15.52
2022-12-18T00:55:06.200Z,13.95
2022-12-18T00:56:09.764Z,15.85
2022-12-18T00:57:12.515Z,14.63
2022-12-18T00:58:17.139Z,13.45
2022-12-18T00:59:19.973Z,13.02
2022-12-18T01:00:23.395Z,14.77
2022-12-18T01:01:26.232Z,13.98
2022-12-18T01:02:29.101Z,13.43
2022-12-18T01:03:31.904Z,13.70
2022-12-18T01:04:34.999Z,14.85
2022-12-18T01:05:41.234Z,12.88
2022-12-18T01:06:44.872Z,14.15
2022-12-18T01:07:47.645Z,14.77
2022-12-18T01:08:51.845Z,14.38
2022-12-18T01:09:54.613Z,12.70
2022-12-18T01:10:57.386Z,14.63
2022-12-18T01:12:02.319Z,15.13
2022-12-18T01:13:06.914Z,13.52
2022-12-18T01:14:10.118Z,14.07
2022-12-18T01:15:15.560Z,15.77
2022-12-18T01:16:18.980Z,15.35
2022-12-18T01:17:22.577Z,15.57
2022-12-18T01:18:25.374Z,15.20
2022-12-18T01:19:28.056Z,14.85
2022-12-18T01:20:31.098Z,14.85
2022-12-18T01:21:34.367Z,14.77
2022-12-18T01:22:40.243Z,13.73
2022-12-18T01:23:43.881Z,15.40
2022-12-18T01:24:46.523Z,15.25
2022-12-18T01:25:49.173Z,15.32
2022-12-18T01:26:51.889Z,15.95
2022-12-18T01:27:54.581Z,13.82
2022-12-18T01:28:58.003Z,15.07
2022-12-18T01:30:00.753Z,16.90
2022-12-18T01:31:13.222Z,14.63
2022-12-18T01:32:16.168Z,14.43
2022-12-18T01:33:20.102Z,14.13
2022-12-18T01:34:23.800Z,15.38
2022-12-18T01:35:26.481Z,14.93
2022-12-18T01:36:34.827Z,15.35
2022-12-18T01:37:37.732Z,15.60
2022-12-18T01:38:40.542Z,14.98
2022-12-18T01:39:43.553Z,17.42
2022-12-18T01:40:46.389Z,15.55
2022-12-18T01:42:04.237Z,15.85
2022-12-18T01:43:10.468Z,15.57
2022-12-18T01:44:46.800Z,19.27
2022-12-18T01:45:50.779Z,14.85
2022-12-18T01:46:53.829Z,16.63
2022-12-18T01:48:03.865Z,14.00
2022-12-18T01:49:06.690Z,13.13
2022-12-18T01:50:38.171Z,16.15
2022-12-18T01:51:41.729Z,13.90
2022-12-18T01:52:55.491Z,15.35
2022-12-18T01:53:58.888Z,14.70
2022-12-18T01:55:04.120Z,14.48
2022-12-18T01:56:07.962Z,15.07
2022-12-18T01:57:10.796Z,14.63
2022-12-18T01:58:14.909Z,15.80
2022-12-18T01:59:18.866Z,14.45
2022-12-18T02:00:23.563Z,14.35
2022-12-18T02:01:28.249Z,14.85
2022-12-18T02:02:31.970Z,16.17
2022-12-18T02:03:34.955Z,15.13
2022-12-18T02:04:39.390Z,14.68
2022-12-18T02:06:33.411Z,15.15
2022-12-18T02:07:55.881Z,14.52
2022-12-18T02:09:21.447Z,14.10
2022-12-18T02:10:27.474Z,13.30
2022-12-18T02:11:49.464Z,15.00
2022-12-18T02:13:21.752Z,13.93
2022-12-18T02:14:30.845Z,12.85
2022-12-18T02:15:58.919Z,15.13
2022-12-18T02:17:14.825Z,14.98
2022-12-18T02:18:35.082Z,15.13
2022-12-18T02:19:40.419Z,13.68
2022-12-18T02:20:49.866Z,15.88
2022-12-18T02:22:22.398Z,14.23
2022-12-18T02:23:31.183Z,15.48
2022-12-18T02:25:09.182Z,16.65
2022-12-18T02:26:31.566Z,13.95
2022-12-18T02:27:36.670Z,14.00
2022-12-18T02:29:02.437Z,13.13
2022-12-18T02:30:07.523Z,12.18
2022-12-18T02:31:14.536Z,13.85
2022-12-18T02:32:23.384Z,11.35
2022-12-18T02:33:27.787Z,11.77
2022-12-18T02:34:33.355Z,11.50
2022-12-18T02:35:37.687Z,12.05
2022-12-18T02:36:42.900Z,12.25
2022-12-18T02:37:48.320Z,12.40
2022-12-18T02:38:52.278Z,12.32
2022-12-18T02:39:56.816Z,11.60
2022-12-18T02:41:00.882Z,10.93
2022-12-18T02:42:08.874Z,10.90
2022-12-18T02:43:14.818Z,10.98
2022-12-18T02:44:17.641Z,12.65
2022-12-18T02:45:20.716Z,10.48
2022-12-18T02:46:36.429Z,10.23
2022-12-18T02:47:49.477Z,11.23
2022-12-18T02:48:55.025Z,11.57
2022-12-18T02:50:21.961Z,12.43
2022-12-18T02:51:38.907Z,11.43
2022-12-18T02:52:48.731Z,10.70
2022-12-18T02:54:22.871Z,11.68
2022-12-18T02:55:47.045Z,13.25
2022-12-18T02:56:56.366Z,11.38
2022-12-18T02:58:13.241Z,11.85
2022-12-18T02:59:23.203Z,10.40
2022-12-18T03:00:52.952Z,10.05
2022-12-18T03:02:17.023Z,11.18
2022-12-18T03:03:21.255Z,11.45
2022-12-18T03:04:27.704Z,11.35
2022-12-18T03:05:36.496Z,12.00
2022-12-18T03:06:46.336Z,11.73
2022-12-18T03:07:54.761Z,9.38
2022-12-18T03:09:01.873Z,12.02
2022-12-18T03:10:08.006Z,12.63
2022-12-18T03:11:14.841Z,12.40
2022-12-18T03:12:31.890Z,12.07
2022-12-18T03:13:37.788Z,12.07
2022-12-18T03:14:41.725Z,11.30
2022-12-18T03:15:53.212Z,11.27
2022-12-18T03:17:02.313Z,9.93
2022-12-18T03:18:14.742Z,9.68
2022-12-18T03:19:21.422Z,10.57
2022-12-18T03:20:27.386Z,10.48
2022-12-18T03:21:35.169Z,10.38
2022-12-18T03:22:39.866Z,9.05
2022-12-18T03:23:47.337Z,11.98
2022-12-18T03:24:51.175Z,9.00
2022-12-18T03:25:57.817Z,9.57
2022-12-18T03:27:03.716Z,9.43
2022-12-18T03:28:09.495Z,9.57
2022-12-18T03:29:21.877Z,9.63
2022-12-18T03:30:26.496Z,9.27
2022-12-18T03:31:30.740Z,9.32
2022-12-18T03:32:40.931Z,9.15
2022-12-18T03:33:47.695Z,9.52
2022-12-18T03:34:52.231Z,10.32
2022-12-18T03:35:57.545Z,9.48
2022-12-18T03:37:00.726Z,9.43
2022-12-18T03:38:05.223Z,9.02
2022-12-18T03:39:08.735Z,9.38
2022-12-18T03:40:13.741Z,9.82
2022-12-18T03:41:25.263Z,11.25
2022-12-18T03:42:56.486Z,8.02
2022-12-18T03:44:25.104Z,9.70
2022-12-18T03:45:40.690Z,9.05
2022-12-18T03:47:08.083Z,9.77
2022-12-18T03:48:17.524Z,9.27
2022-12-18T03:49:26.514Z,9.95
2022-12-18T03:50:57.584Z,9.88
2022-12-18T03:52:22.635Z,9.27
2022-12-18T03:53:58.912Z,9.60
2022-12-18T03:55:08.565Z,8.30
2022-12-18T03:56:13.583Z,9.10
2022-12-18T03:57:26.893Z,9.23
2022-12-18T03:58:33.729Z,10.52
2022-12-18T04:00:04.372Z,10.23
2022-12-18T04:01:18.018Z,11.02
2022-12-18T04:02:24.528Z,12.13
2022-12-18T04:03:28.073Z,11.43
2022-12-18T04:04:35.560Z,10.07
2022-12-18T04:05:40.306Z,10.40
2022-12-18T04:06:45.501Z,10.63
2022-12-18T04:07:50.480Z,11.00
2022-12-18T04:08:54.449Z,9.82
2022-12-18T04:10:00.530Z,10.50
2022-12-18T04:11:03.958Z,11.40
2022-12-18T04:12:09.772Z,9.88
2022-12-18T04:13:12.668Z,10.77
2022-12-18T04:14:18.010Z,10.65
2022-12-18T04:15:22.571Z,12.95
2022-12-18T04:16:26.708Z,11.15
2022-12-18T04:17:32.819Z,12.25
2022-12-18T04:18:35.651Z,11.70
2022-12-18T04:19:38.510Z,10.68
2022-12-18T04:20:41.357Z,10.70
2022-12-18T04:21:44.841Z,10.52
2022-12-18T04:22:49.656Z,10.20
2022-12-18T04:23:55.448Z,11.80
2022-12-18T04:24:59.822Z,11.32
2022-12-18T04:26:09.039Z,12.75
2022-12-18T04:27:27.279Z,11.40
2022-12-18T04:28:30.410Z,12.55
2022-12-18T04:29:33.196Z,13.07
2022-12-18T04:30:36.282Z,11.48
2022-12-18T04:31:39.087Z,11.85
2022-12-18T04:32:45.522Z,13.52
2022-12-18T04:33:51.051Z,12.20
2022-12-18T04:34:53.787Z,12.55
2022-12-18T04:35:56.658Z,13.02
2022-12-18T04:37:00.980Z,12.05
2022-12-18T04:38:03.823Z,13.85
2022-12-18T04:39:07.152Z,12.88
2022-12-18T04:40:11.053Z,11.07
2022-12-18T04:41:18.352Z,12.13
2022-12-18T04:42:23.835Z,13.35
2022-12-18T04:43:26.895Z,13.93
2022-12-18T04:44:29.691Z,13.27
2022-12-18T04:45:33.763Z,13.75
2022-12-18T04:46:38.120Z,13.07
2022-12-18T04:47:41.079Z,16.30
2022-12-18T04:48:47.274Z,13.68
2022-12-18T04:49:50.053Z,15.15
2022-12-18T04:50:53.135Z,15.45
2022-12-18T04:51:55.968Z,14.13
2022-12-18T04:52:59.082Z,15.30
2022-12-18T04:54:02.476Z,14.73
2022-12-18T04:55:05.938Z,15.13
2022-12-18T04:56:14.434Z,14.95
2022-12-18T04:57:19.012Z,16.05
2022-12-18T04:58:21.763Z,14.10
2022-12-18T04:59:24.794Z,14.77
2022-12-18T05:00:28.094Z,15.30
2022-12-18T05:01:34.622Z,13.50
2022-12-18T05:02:37.938Z,13.55
2022-12-18T05:03:42.171Z,16.40
2022-12-18T05:04:45.137Z,15.02
2022-12-18T05:05:51.783Z,13.50
2022-12-18T05:06:54.670Z,13.40
2022-12-18T05:07:57.477Z,15.20
2022-12-18T05:09:00.374Z,13.98
2022-12-18T05:10:03.766Z,13.30
2022-12-18T05:11:12.041Z,14.55
2022-12-18T05:12:14.717Z,13.55
2022-12-18T05:13:17.552Z,16.58
2022-12-18T05:14:20.361Z,14.65
2022-12-18T05:15:23.177Z,14.95
2022-12-18T05:16:26.648Z,15.65
2022-12-18T05:17:29.514Z,15.73
2022-12-18T05:18:33.042Z,14.57
2022-12-18T05:19:35.983Z,15.50
2022-12-18T05:20:38.671Z,14.88
2022-12-18T05:21:42.499Z,15.63
2022-12-18T05:22:45.399Z,15.20
2022-12-18T05:23:50.429Z,15.15
2022-12-18T05:24:53.239Z,15.95
2022-12-18T05:25:58.003Z,16.20
2022-12-18T05:27:01.015Z,16.17
2022-12-18T05:28:05.644Z,17.98
2022-12-18T05:29:08.529Z,17.38
2022-12-18T05:30:11.981Z,16.77
2022-12-18T05:31:15.549Z,16.27
2022-12-18T05:32:18.470Z,17.15
2022-12-18T05:33:22.521Z,15.63
2022-12-18T05:34:25.297Z,17.73
2022-12-18T05:35:28.890Z,15.98
2022-12-18T05:36:31.717Z,17.88
2022-12-18T05:37:39.608Z,16.27
2022-12-18T05:38:45.968Z,16.10
2022-12-18T05:39:48.668Z,15.68
2022-12-18T05:40:52.219Z,16.55
2022-12-18T05:41:54.849Z,15.68
2022-12-18T05:42:57.689Z,15.55
2022-12-18T05:44:00.808Z,18.75
2022-12-18T05:45:04.188Z,14.63
2022-12-18T05:46:09.241Z,16.33
2022-12-18T05:47:12.637Z,15.20
2022-12-18T05:48:15.949Z,18.10
2022-12-18T05:49:18.734Z,16.50
2022-12-18T05:50:21.437Z,16.95
2022-12-18T05:51:24.315Z,16.27
2022-12-18T05:52:27.091Z,16.52
2022-12-18T05:53:29.853Z,16.95
2022-12-18T05:54:32.686Z,16.25
2022-12-18T05:55:39.620Z,15.25
2022-12-18T05:56:48.404Z,16.33
2022-12-18T05:57:51.497Z,16.25
2022-12-18T05:58:55.203Z,18.00
2022-12-18T05:59:58.031Z,16.65
2022-12-18T06:01:08.809Z,17.20
2022-12-18T06:02:11.693Z,18.67
2022-12-18T06:03:15.345Z,19.60
2022-12-18T06:04:18.307Z,17.85
2022-12-18T06:05:21.829Z,16.98
2022-12-18T06:06:27.625Z,17.60
2022-12-18T06:07:30.486Z,17.98
2022-12-18T06:08:33.247Z,16.73
2022-12-18T06:09:38.166Z,16.45
2022-12-18T06:10:41.577Z,18.40
2022-12-18T06:11:44.486Z,17.17
2022-12-18T06:12:47.186Z,16.10
2022-12-18T06:13:58.529Z,16.60
2022-12-18T06:15:02.022Z,17.20
2022-12-18T06:16:07.698Z,17.05
2022-12-18T06:17:10.562Z,17.48
2022-12-18T06:18:13.491Z,18.42
2022-12-18T06:19:17.505Z,20.55
2022-12-18T06:20:20.546Z,19.63
2022-12-18T06:21:23.312Z,19.58
2022-12-18T06:22:26.456Z,18.08
2022-12-18T06:23:29.385Z,19.25
2022-12-18T06:24:32.552Z,20.70
2022-12-18T06:25:38.131Z,16.85
2022-12-18T06:26:40.926Z,18.25
2022-12-18T06:27:43.942Z,16.33
2022-12-18T06:28:47.313Z,17.80
2022-12-18T06:29:50.023Z,19.02
2022-12-18T06:30:52.613Z,19.52
2022-12-18T06:31:55.524Z,18.92
2022-12-18T06:32:58.319Z,21.67
2022-12-18T06:34:04.313Z,20.88
2022-12-18T06:35:08.049Z,20.90
2022-12-18T06:36:13.171Z,21.30
2022-12-18T06:37:15.991Z,19.50
2022-12-18T06:38:18.784Z,19.00
2022-12-18T06:39:22.509Z,21.27
2022-12-18T06:40:25.334Z,19.50
2022-12-18T06:41:28.426Z,20.95
2022-12-18T06:42:31.179Z,21.98
2022-12-18T06:43:34.050Z,21.05
2022-12-18T06:44:36.836Z,20.13
2022-12-18T06:45:39.651Z,20.23
2022-12-18T06:46:42.802Z,17.67
2022-12-18T06:47:46.022Z,20.05
2022-12-18T06:48:50.891Z,20.23
2022-12-18T06:49:53.643Z,18.92
2022-12-18T06:50:56.470Z,17.35
2022-12-18T06:51:59.742Z,19.25
2022-12-18T06:53:02.554Z,17.67
2022-12-18T06:54:05.532Z,17.27
2022-12-18T06:55:10.078Z,18.83
2022-12-18T06:56:12.891Z,19.02
2022-12-18T06:57:15.795Z,18.67
2022-12-18T06:58:18.663Z,17.83
2022-12-18T06:59:21.279Z,18.58
2022-12-18T07:00:24.177Z,18.85
2022-12-18T07:01:27.127Z,18.40
2022-12-18T07:02:30.092Z,18.55
2022-12-18T07:03:33.159Z,18.38
2022-12-18T07:04:35.794Z,16.48
2022-12-18T07:05:42.289Z,19.08
2022-12-18T07:06:45.144Z,18.23
2022-12-18T07:07:47.781Z,19.90
2022-12-18T07:08:50.818Z,18.75
2022-12-18T07:09:53.566Z,18.58
2022-12-18T07:10:56.623Z,18.92
2022-12-18T07:11:59.348Z,18.88
2022-12-18T07:13:02.198Z,18.70
2022-12-18T07:14:04.802Z,18.88
2022-12-18T07:15:08.140Z,18.23
2022-12-18T07:16:23.955Z,18.88
2022-12-18T07:17:27.768Z,19.38
2022-12-18T07:18:30.794Z,23.15
2022-12-18T07:19:33.532Z,20.40
2022-12-18T07:20:36.193Z,20.30
2022-12-18T07:21:38.856Z,20.60
2022-12-18T07:22:41.613Z,20.65
2022-12-18T07:23:44.925Z,19.92
2022-12-18T07:24:47.862Z,20.98
2022-12-18T07:25:50.898Z,19.35
2022-12-18T07:26:54.038Z,19.58
2022-12-18T07:27:56.752Z,21.25
2022-12-18T07:28:59.779Z,21.45
2022-12-18T07:30:02.429Z,19.92
2022-12-18T07:31:07.127Z,21.48
2022-12-18T07:32:10.003Z,20.48
2022-12-18T07:33:13.196Z,19.13
2022-12-18T07:34:16.395Z,21.60
2022-12-18T07:35:24.753Z,21.55
2022-12-18T07:36:27.963Z,20.63
2022-12-18T07:37:30.703Z,21.58
2022-12-18T07:38:34.776Z,20.20
2022-12-18T07:39:37.411Z,20.63
2022-12-18T07:40:40.105Z,20.20
2022-12-18T07:42:05.541Z,21.65
2022-12-18T07:43:11.003Z,17.42
2022-12-18T07:44:14.067Z,19.77
2022-12-18T07:45:17.120Z,18.42
2022-12-18T07:46:19.991Z,18.02
2022-12-18T07:47:22.829Z,16.80
2022-12-18T07:48:25.554Z,17.25
2022-12-18T07:49:28.911Z,18.63
2022-12-18T07:50:31.773Z,17.48
2022-12-18T07:51:34.506Z,20.40
2022-12-18T07:52:37.143Z,21.83
2022-12-18T07:53:40.751Z,20.88
2022-12-18T07:54:43.949Z,24.23
2022-12-18T07:56:24.927Z,21.33
2022-12-18T07:57:27.317Z,20.75
2022-12-18T07:58:33.016Z,22.08
2022-12-18T07:59:35.910Z,21.80
2022-12-18T08:00:38.608Z,22.60
2022-12-18T08:01:41.619Z,22.55
2022-12-18T08:02:45.833Z,23.80
2022-12-18T08:03:48.558Z,24.55
2022-12-18T08:04:52.749Z,22.90
2022-12-18T08:06:00.392Z,22.58
2022-12-18T08:07:03.266Z,23.77
2022-12-18T08:08:06.170Z,23.40
2022-12-18T08:09:10.281Z,19.50
2022-12-18T08:10:12.995Z,19.73
2022-12-18T08:11:15.634Z,21.23
2022-12-18T08:12:18.255Z,21.65
2022-12-18T08:13:21.216Z,23.73
2022-12-18T08:14:26.173Z,24.35
2022-12-18T08:15:28.960Z,23.52
2022-12-18T08:16:31.814Z,22.30
2022-12-18T08:17:34.651Z,22.17
2022-12-18T08:18:38.532Z,23.70
2022-12-18T08:19:41.166Z,21.15
2022-12-18T08:20:43.800Z,25.70
2022-12-18T08:21:47.072Z,23.33
2022-12-18T08:22:49.865Z,23.98
2022-12-18T08:23:53.894Z,20.40
2022-12-18T08:24:56.855Z,20.17
2022-12-18T08:25:59.713Z,20.67
2022-12-18T08:28:25.214Z,17.92
2022-12-18T08:29:27.891Z,18.23
2022-12-18T08:30:30.563Z,20.70
2022-12-18T08:31:34.124Z,20.85
2022-12-18T08:32:37.442Z,19.10
2022-12-18T08:33:42.170Z,20.48
2022-12-18T08:34:45.114Z,20.27
2022-12-18T08:35:47.846Z,22.58
2022-12-18T08:36:50.570Z,19.52
2022-12-18T08:37:53.258Z,19.95
2022-12-18T08:38:55.971Z,20.92
2022-12-18T08:39:58.621Z,21.42
2022-12-18T08:41:05.775Z,20.25
2022-12-18T08:42:27.227Z,24.77
2022-12-18T08:43:48.601Z,21.13
2022-12-18T08:44:51.320Z,22.58
2022-12-18T08:45:53.958Z,26.45
2022-12-18T08:46:56.773Z,25.27
2022-12-18T08:47:59.691Z,23.45
2022-12-18T08:49:02.473Z,21.15
2022-12-18T08:50:07.128Z,23.25
2022-12-18T08:51:12.827Z,22.67
2022-12-18T08:52:15.450Z,22.17
2022-12-18T08:53:18.102Z,24.63
2022-12-18T08:54:20.711Z,22.92
2022-12-18T08:55:23.309Z,25.00
2022-12-18T08:56:25.994Z,23.30
2022-12-18T08:57:28.747Z,21.30
2022-12-18T08:58:31.751Z,21.83
2022-12-18T08:59:34.370Z,21.42
2022-12-18T09:00:36.964Z,19.23
2022-12-18T09:01:39.709Z,18.40
2022-12-18T09:02:42.629Z,19.73
2022-12-18T09:03:45.594Z,19.92
2022-12-18T09:04:53.801Z,20.17
2022-12-18T09:06:00.529Z,20.08
2022-12-18T09:07:03.300Z,18.45
2022-12-18T09:08:05.994Z,20.25
2022-12-18T09:09:09.907Z,18.23
2022-12-18T09:10:12.573Z,18.00
2022-12-18T09:11:26.851Z,20.75
2022-12-18T09:12:30.590Z,17.50
2022-12-18T09:13:33.329Z,19.90
2022-12-18T09:14:36.494Z,20.58
2022-12-18T09:15:47.887Z,20.90
2022-12-18T09:16:50.721Z,19.52
2022-12-18T09:17:54.037Z,22.15
2022-12-18T09:19:00.813Z,20.40
2022-12-18T09:20:04.261Z,19.48
2022-12-18T09:21:11.913Z,20.33
2022-12-18T09:22:14.631Z,21.20
2022-12-18T09:23:17.332Z,20.50
2022-12-18T09:24:20.107Z,20.17
2022-12-18T09:25:22.818Z,19.77
2022-12-18T09:26:27.049Z,17.88
2022-12-18T09:27:29.701Z,18.55
2022-12-18T09:28:32.479Z,20.05
2022-12-18T09:29:35.288Z,20.45
2022-12-18T09:30:42.613Z,20.52
2022-12-18T09:31:45.315Z,18.90
2022-12-18T09:32:48.165Z,18.67
2022-12-18T09:33:51.171Z,19.98
2022-12-18T09:34:53.849Z,18.45
2022-12-18T09:35:56.625Z,18.92
2022-12-18T09:36:59.207Z,18.88
2022-12-18T09:38:02.094Z,19.70
2022-12-18T09:39:08.649Z,19.88
2022-12-18T09:40:23.833Z,19.25
2022-12-18T09:41:45.239Z,19.23
2022-12-18T09:42:57.184Z,18.75
2022-12-18T09:44:06.818Z,21.10
2022-12-18T09:45:15.580Z,20.10
2022-12-18T09:46:27.184Z,21.50
2022-12-18T09:47:37.246Z,19.83
2022-12-18T09:48:43.074Z,19.88
2022-12-18T09:49:48.724Z,19.38
2022-12-18T09:50:52.871Z,21.38
2022-12-18T09:52:21.129Z,19.60
2022-12-18T09:53:27.683Z,20.48
2022-12-18T09:54:39.756Z,22.02
2022-12-18T09:55:43.887Z,18.40
2022-12-18T09:56:47.077Z,18.95
2022-12-18T09:57:54.347Z,19.48
2022-12-18T09:59:00.319Z,20.00
2022-12-18T10:00:19.284Z,19.35
2022-12-18T10:01:28.793Z,20.25
2022-12-18T10:02:33.668Z,20.90
2022-12-18T10:03:36.459Z,20.92
2022-12-18T10:04:39.142Z,21.83
2022-12-18T10:05:56.506Z,20.65
2022-12-18T10:07:31.355Z,20.98
2022-12-18T10:08:52.912Z,19.98
2022-12-18T10:10:36.105Z,18.77
2022-12-18T10:11:57.064Z,18.67
2022-12-18T10:13:04.735Z,18.92
2022-12-18T10:14:14.133Z,18.35
2022-12-18T10:15:26.408Z,19.73
2022-12-18T10:16:44.624Z,22.98
2022-12-18T10:17:55.366Z,19.98
2022-12-18T10:20:45.412Z,17.35
2022-12-18T10:22:12.635Z,19.17
2022-12-18T10:23:48.361Z,19.77
2022-12-18T10:25:00.006Z,18.27
2022-12-18T10:26:08.384Z,20.15
2022-12-18T10:27:17.219Z,19.50
2022-12-18T10:28:20.865Z,19.73
2022-12-18T10:29:23.853Z,19.50
2022-12-18T10:30:28.081Z,21.30
2022-12-18T10:31:30.964Z,19.73
2022-12-18T10:32:33.701Z,20.25
2022-12-18T10:33:36.741Z,20.98
2022-12-18T10:34:39.403Z,19.58
2022-12-18T10:35:43.313Z,20.90
2022-12-18T10:36:46.049Z,20.92
2022-12-18T10:38:30.399Z,20.65
2022-12-18T10:39:33.083Z,20.13
2022-12-18T10:40:52.505Z,20.15
2022-12-18T10:42:17.452Z,17.98
2022-12-18T10:43:34.561Z,19.65
2022-12-18T10:44:37.218Z,19.42
2022-12-18T10:45:40.573Z,18.98
2022-12-18T10:46:43.496Z,18.52
2022-12-18T10:47:48.257Z,19.02
2022-12-18T10:48:55.178Z,21.17
2022-12-18T10:49:58.336Z,18.83
2022-12-18T10:51:10.887Z,20.55
2022-12-18T10:52:24.414Z,18.95
2022-12-18T10:53:29.454Z,22.83
2022-12-18T10:54:32.920Z,22.27
2022-12-18T10:55:38.495Z,26.05
2022-12-18T10:56:41.443Z,28.73
2022-12-18T10:57:45.646Z,26.67
2022-12-18T10:58:58.634Z,27.52
2022-12-18T11:00:20.540Z,22.88
2022-12-18T11:01:23.630Z,20.73
2022-12-18T11:02:35.984Z,21.98
2022-12-18T11:03:44.381Z,20.90
2022-12-18T11:04:55.963Z,21.20
2022-12-18T11:06:13.494Z,21.25
2022-12-18T11:07:16.253Z,21.00
2022-12-18T11:08:23.833Z,20.42
2022-12-18T11:09:40.450Z,21.40
2022-12-18T11:10:48.209Z,21.67
2022-12-18T11:11:54.254Z,21.73
2022-12-18T11:12:57.096Z,18.98
2022-12-18T11:14:11.855Z,18.38
2022-12-18T11:15:29.422Z,20.08
2022-12-18T11:16:37.234Z,18.92
2022-12-18T11:17:40.644Z,19.08
2022-12-18T11:18:43.632Z,21.25
2022-12-18T11:19:53.635Z,21.20
2022-12-18T11:21:02.575Z,18.92
2022-12-18T11:22:27.593Z,20.33
2022-12-18T11:23:30.455Z,19.17
2022-12-18T11:24:35.528Z,19.88
2022-12-18T11:25:39.531Z,18.70
2022-12-18T11:26:44.340Z,19.40
2022-12-18T11:27:56.826Z,20.08
2022-12-18T11:29:12.882Z,19.27
2022-12-18T11:30:21.115Z,19.45
2022-12-18T11:31:27.267Z,21.52
2022-12-18T11:32:39.896Z,20.23
2022-12-18T11:34:29.279Z,19.13
2022-12-18T11:35:44.129Z,19.23
2022-12-18T11:36:47.949Z,19.10
2022-12-18T11:38:04.051Z,19.17
2022-12-18T11:39:17.066Z,20.02
2022-12-18T11:40:23.683Z,19.30
2022-12-18T11:42:05.894Z,20.65
2022-12-18T11:43:16.373Z,18.48
2022-12-18T11:44:50.506Z,18.88
2022-12-18T11:45:56.355Z,17.27
2022-12-18T11:47:07.074Z,21.75
2022-12-18T11:49:40.235Z,18.05
2022-12-18T11:50:47.799Z,19.50
2022-12-18T11:51:57.317Z,20.58
2022-12-18T11:53:05.639Z,21.02
2022-12-18T11:54:14.779Z,20.88
2022-12-18T11:55:45.162Z,21.52
2022-12-18T11:56:55.026Z,20.83
2022-12-18T11:58:29.455Z,19.13
2022-12-18T11:59:46.351Z,18.83
2022-12-18T12:00:57.492Z,22.13
2022-12-18T12:02:19.801Z,22.20
2022-12-18T12:03:56.037Z,27.15
2022-12-18T12:05:27.271Z,27.15
2022-12-18T12:06:35.527Z,27.73
2022-12-18T12:08:03.848Z,24.55
2022-12-18T12:09:15.108Z,20.85
2022-12-18T12:10:26.919Z,22.63
2022-12-18T12:11:35.587Z,22.38
2022-12-18T12:12:54.895Z,22.85
2022-12-18T12:14:06.455Z,20.10
2022-12-18T12:15:39.864Z,21.75
2022-12-18T12:16:54.859Z,21.70
2022-12-18T12:18:09.599Z,21.55
2022-12-18T12:19:28.536Z,20.73
2022-12-18T12:21:05.164Z,18.10
2022-12-18T12:22:23.698Z,20.33
2022-12-18T12:23:54.117Z,20.92
2022-12-18T12:25:02.658Z,19.77
2022-12-18T12:26:12.945Z,18.60
2022-12-18T12:27:21.975Z,20.10
2022-12-18T12:28:53.311Z,18.73
2022-12-18T12:31:20.143Z,18.33
2022-12-18T12:32:34.687Z,18.23
2022-12-18T12:33:56.231Z,20.75
2022-12-18T12:35:35.574Z,21.17
2022-12-18T12:37:19.648Z,19.10
2022-12-18T12:38:52.439Z,19.15
2022-12-18T12:39:55.955Z,18.58
2022-12-18T12:41:31.093Z,20.75
2022-12-18T12:42:58.641Z,20.20
2022-12-18T12:44:04.555Z,20.20
2022-12-18T12:45:17.344Z,21.40
2022-12-18T12:46:22.406Z,20.63
2022-12-18T12:47:29.419Z,21.05
2022-12-18T12:48:41.548Z,22.67
2022-12-18T12:49:48.751Z,22.73
2022-12-18T12:50:53.976Z,20.98
2022-12-18T12:52:34.753Z,23.17
2022-12-18T12:53:42.818Z,21.00
2022-12-18T12:54:46.501Z,24.48
2022-12-18T12:55:49.815Z,24.30
2022-12-18T12:57:21.500Z,25.42
2022-12-18T12:58:32.746Z,23.38
2022-12-18T12:59:57.568Z,22.60
2022-12-18T13:01:36.049Z,20.48
2022-12-18T13:02:56.938Z,22.83
2022-12-18T13:04:11.718Z,24.10
2022-12-18T13:05:21.110Z,22.55
2022-12-18T13:06:45.163Z,25.65
2022-12-18T13:07:55.868Z,22.15
2022-12-18T13:09:01.815Z,23.30
2022-12-18T13:10:23.783Z,23.05
2022-12-18T13:11:59.766Z,22.45
2022-12-18T13:13:10.489Z,22.90
2022-12-18T13:14:23.208Z,23.55
2022-12-18T13:15:26.609Z,22.55
2022-12-18T13:16:30.182Z,23.58
2022-12-18T13:17:33.558Z,20.67
2022-12-18T13:18:36.550Z,22.23
2022-12-18T13:19:39.976Z,19.60
2022-12-18T13:20:53.695Z,20.65
2022-12-18T13:22:01.195Z,20.13
2022-12-18T13:23:25.332Z,20.83
2022-12-18T13:24:31.940Z,20.08
2022-12-18T13:25:36.329Z,20.15
2022-12-18T13:26:39.137Z,20.90
2022-12-18T13:27:44.815Z,22.40
2022-12-18T13:28:47.537Z,22.65
2022-12-18T13:29:52.844Z,20.77
2022-12-18T13:30:57.722Z,21.45
2022-12-18T13:32:01.826Z,24.73
2022-12-18T13:33:17.510Z,19.33
2022-12-18T13:34:27.684Z,19.48
2022-12-18T13:35:31.396Z,17.65
2022-12-18T13:36:35.225Z,19.08
2022-12-18T13:37:53.471Z,20.42
2022-12-18T13:39:18.419Z,19.10
2022-12-18T13:40:45.789Z,19.80
2022-12-18T13:41:52.307Z,18.17
2022-12-18T13:43:14.351Z,19.73
2022-12-18T13:44:40.590Z,19.55
2022-12-18T13:45:49.427Z,18.95
2022-12-18T13:46:53.214Z,18.45
2022-12-18T13:47:55.943Z,18.63
2022-12-18T13:49:05.544Z,18.00
2022-12-18T13:50:33.939Z,19.08
2022-12-18T13:51:42.745Z,18.05
2022-12-18T13:52:45.397Z,19.88
2022-12-18T13:53:52.837Z,20.75
2022-12-18T13:54:59.202Z,19.58
2022-12-18T13:56:03.735Z,23.88
2022-12-18T13:57:23.860Z,23.52
2022-12-18T13:58:26.661Z,20.50
2022-12-18T13:59:40.399Z,22.40
2022-12-18T14:00:44.157Z,21.10
2022-12-18T14:01:54.925Z,22.52
2022-12-18T14:03:00.095Z,22.55
2022-12-18T14:04:13.092Z,22.13
2022-12-18T14:05:26.694Z,22.63
2022-12-18T14:06:29.380Z,21.40
2022-12-18T14:07:39.903Z,21.77
2022-12-18T14:08:46.191Z,22.13
2022-12-18T14:10:01.924Z,23.05
2022-12-18T14:11:20.619Z,16.65
2022-12-18T14:12:45.891Z,22.05
2022-12-18T14:13:51.182Z,21.77
2022-12-18T14:14:55.280Z,21.80
2022-12-18T14:16:00.970Z,21.67
2022-12-18T14:17:11.148Z,20.35
2022-12-18T14:18:51.257Z,22.00
2022-12-18T14:19:54.159Z,21.35
2022-12-18T14:21:00.137Z,20.98
2022-12-18T14:22:02.806Z,21.30
2022-12-18T14:23:05.718Z,22.58
2022-12-18T14:24:20.162Z,21.80
2022-12-18T14:25:27.965Z,20.95
2022-12-18T14:26:32.508Z,23.30
2022-12-18T14:27:39.303Z,21.58
2022-12-18T14:28:45.646Z,22.60
2022-12-18T14:29:48.402Z,24.05
2022-12-18T14:30:51.322Z,22.52
2022-12-18T14:32:17.972Z,22.63
2022-12-18T14:33:26.718Z,23.65
2022-12-18T14:34:29.416Z,22.90
2022-12-18T14:35:33.606Z,21.58
2022-12-18T14:36:36.285Z,23.67
2022-12-18T14:37:39.034Z,24.48
2022-12-18T14:38:41.861Z,25.83
2022-12-18T14:39:59.172Z,23.90
2022-12-18T14:41:16.226Z,24.27
2022-12-18T14:42:18.949Z,20.63
2022-12-18T14:43:22.438Z,24.33